sensor_id;sensor_type;location;lat;lon;timestamp;pressure;altitude;pressure_sealevel;temperature;humidity
56582;BME280;42463;52.214;21.238;2024-03-08T00:01:27;101261.46;;;0.52;62.21
56582;BME280;42463;52.214;21.238;2024-03-08T00:04:02;101259.93;;;0.48;62.32
56582;BME280;42463;52.214;21.238;2024-03-08T00:06:39;101262.23;;;0.45;62.36
56582;BME280;42463;52.214;21.238;2024-03-08T00:09:14;101256.06;;;0.43;62.46
56582;BME280;42463;52.214;21.238;2024-03-08T00:11:48;101256.98;;;0.41;62.55
56582;BME280;42463;52.214;21.238;2024-03-08T00:14:21;101252.59;;;0.41;62.62
56582;BME280;42463;52.214;21.238;2024-03-08T00:16:55;101249.36;;;0.39;62.61
56582;BME280;42463;52.214;21.238;2024-03-08T00:19:28;101254.77;;;0.39;62.71
56582;BME280;42463;52.214;21.238;2024-03-08T00:22:01;101250.77;;;0.38;63.01
56582;BME280;42463;52.214;21.238;2024-03-08T00:24:36;101248.44;;;0.36;62.92
56582;BME280;42463;52.214;21.238;2024-03-08T00:27:10;101247.34;;;0.35;62.89
56582;BME280;42463;52.214;21.238;2024-03-08T00:29:44;101245.90;;;0.32;62.92
56582;BME280;42463;52.214;21.238;2024-03-08T00:32:18;101240.30;;;0.29;62.97
56582;BME280;42463;52.214;21.238;2024-03-08T00:34:53;101240.77;;;0.27;63.05
56582;BME280;42463;52.214;21.238;2024-03-08T00:37:26;101244.96;;;0.26;63.09
56582;BME280;42463;52.214;21.238;2024-03-08T00:40:00;101244.23;;;0.22;63.09
56582;BME280;42463;52.214;21.238;2024-03-08T00:42:35;101241.23;;;0.21;63.23
56582;BME280;42463;52.214;21.238;2024-03-08T00:45:13;101243.16;;;0.20;63.40
56582;BME280;42463;52.214;21.238;2024-03-08T00:47:49;101240.93;;;0.19;63.38
56582;BME280;42463;52.214;21.238;2024-03-08T00:50:20;101244.17;;;0.18;63.36
56582;BME280;42463;52.214;21.238;2024-03-08T00:52:54;101241.96;;;0.16;63.51
56582;BME280;42463;52.214;21.238;2024-03-08T00:55:28;101242.10;;;0.15;63.36
56582;BME280;42463;52.214;21.238;2024-03-08T00:58:02;101235.16;;;0.13;63.53
56582;BME280;42463;52.214;21.238;2024-03-08T01:00:36;101234.49;;;0.11;63.38
56582;BME280;42463;52.214;21.238;2024-03-08T01:03:11;101235.02;;;0.08;63.38
56582;BME280;42463;52.214;21.238;2024-03-08T01:05:43;101235.12;;;0.04;63.06
56582;BME280;42463;52.214;21.238;2024-03-08T01:08:18;101237.26;;;-0.02;63.06
56582;BME280;42463;52.214;21.238;2024-03-08T01:10:51;101237.19;;;-0.05;63.17
56582;BME280;42463;52.214;21.238;2024-03-08T01:13:25;101235.77;;;-0.08;63.16
56582;BME280;42463;52.214;21.238;2024-03-08T01:15:59;101234.41;;;-0.12;63.17
56582;BME280;42463;52.214;21.238;2024-03-08T01:18:32;101231.34;;;-0.16;63.17
56582;BME280;42463;52.214;21.238;2024-03-08T01:21:06;101232.34;;;-0.20;63.24
56582;BME280;42463;52.214;21.238;2024-03-08T01:23:38;101231.19;;;-0.23;63.27
56582;BME280;42463;52.214;21.238;2024-03-08T01:26:11;101227.62;;;-0.24;63.31
56582;BME280;42463;52.214;21.238;2024-03-08T01:28:45;101223.42;;;-0.26;63.39
56582;BME280;42463;52.214;21.238;2024-03-08T01:31:18;101226.61;;;-0.26;63.48
56582;BME280;42463;52.214;21.238;2024-03-08T01:33:52;101221.69;;;-0.25;63.41
56582;BME280;42463;52.214;21.238;2024-03-08T01:36:25;101225.59;;;-0.25;63.45
56582;BME280;42463;52.214;21.238;2024-03-08T01:38:59;101225.88;;;-0.26;63.45
56582;BME280;42463;52.214;21.238;2024-03-08T01:41:31;101224.41;;;-0.29;63.37
56582;BME280;42463;52.214;21.238;2024-03-08T01:44:06;101222.61;;;-0.31;63.45
56582;BME280;42463;52.214;21.238;2024-03-08T01:46:40;101221.67;;;-0.34;63.43
56582;BME280;42463;52.214;21.238;2024-03-08T01:49:16;101220.94;;;-0.37;63.52
56582;BME280;42463;52.214;21.238;2024-03-08T01:51:53;101218.56;;;-0.39;63.60
56582;BME280;42463;52.214;21.238;2024-03-08T01:54:28;101217.13;;;-0.43;63.54
56582;BME280;42463;52.214;21.238;2024-03-08T01:57:02;101216.05;;;-0.46;63.51
56582;BME280;42463;52.214;21.238;2024-03-08T01:59:36;101214.91;;;-0.48;63.68
56582;BME280;42463;52.214;21.238;2024-03-08T02:02:10;101215.21;;;-0.50;63.74
56582;BME280;42463;52.214;21.238;2024-03-08T02:04:44;101212.02;;;-0.51;63.68
56582;BME280;42463;52.214;21.238;2024-03-08T02:07:17;101207.20;;;-0.53;63.81
56582;BME280;42463;52.214;21.238;2024-03-08T02:09:49;101207.00;;;-0.54;63.79
56582;BME280;42463;52.214;21.238;2024-03-08T02:12:23;101205.16;;;-0.55;63.84
56582;BME280;42463;52.214;21.238;2024-03-08T02:14:56;101202.54;;;-0.55;63.99
56582;BME280;42463;52.214;21.238;2024-03-08T02:17:30;101200.63;;;-0.56;64.02
56582;BME280;42463;52.214;21.238;2024-03-08T02:20:07;101199.83;;;-0.59;63.83
56582;BME280;42463;52.214;21.238;2024-03-08T02:22:43;101199.48;;;-0.62;63.76
56582;BME280;42463;52.214;21.238;2024-03-08T02:25:18;101199.94;;;-0.66;63.77
56582;BME280;42463;52.214;21.238;2024-03-08T02:27:51;101197.70;;;-0.69;63.85
56582;BME280;42463;52.214;21.238;2024-03-08T02:30:26;101198.20;;;-0.70;63.84
56582;BME280;42463;52.214;21.238;2024-03-08T02:33:01;101196.33;;;-0.73;63.79
56582;BME280;42463;52.214;21.238;2024-03-08T02:35:36;101196.48;;;-0.74;63.92
56582;BME280;42463;52.214;21.238;2024-03-08T02:38:09;101196.52;;;-0.74;63.92
56582;BME280;42463;52.214;21.238;2024-03-08T02:40:42;101197.15;;;-0.75;63.81
56582;BME280;42463;52.214;21.238;2024-03-08T02:43:17;101198.22;;;-0.75;63.98
56582;BME280;42463;52.214;21.238;2024-03-08T02:45:50;101191.39;;;-0.76;63.92
56582;BME280;42463;52.214;21.238;2024-03-08T02:48:26;101193.31;;;-0.77;64.04
56582;BME280;42463;52.214;21.238;2024-03-08T02:50:58;101192.68;;;-0.78;63.98
56582;BME280;42463;52.214;21.238;2024-03-08T02:53:33;101193.14;;;-0.81;64.16
56582;BME280;42463;52.214;21.238;2024-03-08T02:56:07;101188.84;;;-0.82;64.25
56582;BME280;42463;52.214;21.238;2024-03-08T02:58:45;101186.16;;;-0.84;64.16
56582;BME280;42463;52.214;21.238;2024-03-08T03:01:20;101189.35;;;-0.85;64.16
56582;BME280;42463;52.214;21.238;2024-03-08T03:03:55;101185.66;;;-0.86;64.25
56582;BME280;42463;52.214;21.238;2024-03-08T03:06:29;101183.09;;;-0.86;64.25
56582;BME280;42463;52.214;21.238;2024-03-08T03:09:01;101184.27;;;-0.87;64.34
56582;BME280;42463;52.214;21.238;2024-03-08T03:11:39;101187.55;;;-0.88;64.34
56582;BME280;42463;52.214;21.238;2024-03-08T03:14:14;101186.92;;;-0.89;64.43
56582;BME280;42463;52.214;21.238;2024-03-08T03:16:46;101187.21;;;-0.89;64.33
56582;BME280;42463;52.214;21.238;2024-03-08T03:19:21;101184.11;;;-0.89;64.32
56582;BME280;42463;52.214;21.238;2024-03-08T03:21:56;101184.48;;;-0.89;64.37
56582;BME280;42463;52.214;21.238;2024-03-08T03:24:29;101184.38;;;-0.90;64.40
56582;BME280;42463;52.214;21.238;2024-03-08T03:27:06;101188.51;;;-0.90;64.50
56582;BME280;42463;52.214;21.238;2024-03-08T03:29:43;101181.82;;;-0.91;64.40
56582;BME280;42463;52.214;21.238;2024-03-08T03:32:18;101179.85;;;-0.91;64.35
56582;BME280;42463;52.214;21.238;2024-03-08T03:34:51;101181.45;;;-0.91;64.38
56582;BME280;42463;52.214;21.238;2024-03-08T03:37:26;101177.55;;;-0.91;64.28
56582;BME280;42463;52.214;21.238;2024-03-08T03:40:01;101175.08;;;-0.91;64.38
56582;BME280;42463;52.214;21.238;2024-03-08T03:42:33;101174.81;;;-0.92;64.42
56582;BME280;42463;52.214;21.238;2024-03-08T03:45:08;101173.52;;;-0.93;64.37
56582;BME280;42463;52.214;21.238;2024-03-08T03:47:44;101172.65;;;-0.95;64.43
56582;BME280;42463;52.214;21.238;2024-03-08T03:50:17;101171.85;;;-0.96;64.55
56582;BME280;42463;52.214;21.238;2024-03-08T03:52:50;101174.13;;;-0.98;64.62
56582;BME280;42463;52.214;21.238;2024-03-08T03:55:24;101174.79;;;-0.99;64.67
56582;BME280;42463;52.214;21.238;2024-03-08T03:57:58;101172.80;;;-1.00;64.83
56582;BME280;42463;52.214;21.238;2024-03-08T04:00:32;101170.30;;;-1.02;64.87
56582;BME280;42463;52.214;21.238;2024-03-08T04:03:07;101172.48;;;-1.02;64.96
56582;BME280;42463;52.214;21.238;2024-03-08T04:05:39;101169.86;;;-1.04;64.90
56582;BME280;42463;52.214;21.238;2024-03-08T04:08:12;101171.08;;;-1.06;64.81
56582;BME280;42463;52.214;21.238;2024-03-08T04:10:44;101164.62;;;-1.07;64.84
56582;BME280;42463;52.214;21.238;2024-03-08T04:13:18;101166.52;;;-1.08;64.83
56582;BME280;42463;52.214;21.238;2024-03-08T04:15:53;101163.11;;;-1.09;64.66
56582;BME280;42463;52.214;21.238;2024-03-08T04:18:26;101158.58;;;-1.12;64.64
56582;BME280;42463;52.214;21.238;2024-03-08T04:20:59;101161.75;;;-1.14;64.57
56582;BME280;42463;52.214;21.238;2024-03-08T04:23:34;101160.75;;;-1.16;64.66
56582;BME280;42463;52.214;21.238;2024-03-08T04:26:09;101162.37;;;-1.18;64.62
56582;BME280;42463;52.214;21.238;2024-03-08T04:28:42;101162.27;;;-1.18;64.74
56582;BME280;42463;52.214;21.238;2024-03-08T04:31:15;101161.67;;;-1.19;64.72
56582;BME280;42463;52.214;21.238;2024-03-08T04:33:48;101161.70;;;-1.21;64.59
56582;BME280;42463;52.214;21.238;2024-03-08T04:36:22;101160.45;;;-1.24;64.59
56582;BME280;42463;52.214;21.238;2024-03-08T04:38:56;101160.21;;;-1.25;64.54
56582;BME280;42463;52.214;21.238;2024-03-08T04:41:28;101158.23;;;-1.27;64.70
56582;BME280;42463;52.214;21.238;2024-03-08T04:44:02;101157.70;;;-1.27;64.74
56582;BME280;42463;52.214;21.238;2024-03-08T04:46:35;101158.70;;;-1.27;64.65
56582;BME280;42463;52.214;21.238;2024-03-08T04:49:08;101158.71;;;-1.27;64.77
56582;BME280;42463;52.214;21.238;2024-03-08T04:51:44;101160.97;;;-1.28;64.45
56582;BME280;42463;52.214;21.238;2024-03-08T04:54:15;101163.90;;;-1.32;64.25
56582;BME280;42463;52.214;21.238;2024-03-08T04:56:49;101161.18;;;-1.37;64.29
56582;BME280;42463;52.214;21.238;2024-03-08T04:59:22;101159.73;;;-1.40;64.25
56582;BME280;42463;52.214;21.238;2024-03-08T05:01:55;101163.55;;;-1.41;64.37
56582;BME280;42463;52.214;21.238;2024-03-08T05:04:28;101162.23;;;-1.42;64.21
56582;BME280;42463;52.214;21.238;2024-03-08T05:07:01;101160.98;;;-1.42;64.35
56582;BME280;42463;52.214;21.238;2024-03-08T05:09:34;101159.79;;;-1.42;64.11
56582;BME280;42463;52.214;21.238;2024-03-08T05:12:10;101159.88;;;-1.45;64.13
56582;BME280;42463;52.214;21.238;2024-03-08T05:14:44;101160.50;;;-1.47;64.03
56582;BME280;42463;52.214;21.238;2024-03-08T05:17:19;101158.62;;;-1.50;63.99
56582;BME280;42463;52.214;21.238;2024-03-08T05:19:53;101162.80;;;-1.52;64.07
56582;BME280;42463;52.214;21.238;2024-03-08T05:22:27;101162.71;;;-1.55;63.99
56582;BME280;42463;52.214;21.238;2024-03-08T05:25:01;101166.70;;;-1.57;64.09
56582;BME280;42463;52.214;21.238;2024-03-08T05:27:34;101161.89;;;-1.61;64.02
56582;BME280;42463;52.214;21.238;2024-03-08T05:30:11;101164.37;;;-1.63;64.05
56582;BME280;42463;52.214;21.238;2024-03-08T05:32:47;101165.86;;;-1.63;64.26
56582;BME280;42463;52.214;21.238;2024-03-08T05:35:20;101159.38;;;-1.64;64.23
56582;BME280;42463;52.214;21.238;2024-03-08T05:37:54;101159.02;;;-1.64;64.39
56582;BME280;42463;52.214;21.238;2024-03-08T05:40:28;101160.77;;;-1.64;64.38
56582;BME280;42463;52.214;21.238;2024-03-08T05:43:03;101157.81;;;-1.63;64.64
56582;BME280;42463;52.214;21.238;2024-03-08T05:45:38;101159.52;;;-1.60;64.68
56582;BME280;42463;52.214;21.238;2024-03-08T05:48:13;101158.68;;;-1.57;64.81
56582;BME280;42463;52.214;21.238;2024-03-08T05:50:48;101157.98;;;-1.54;64.79
56582;BME280;42463;52.214;21.238;2024-03-08T05:53:22;101158.02;;;-1.49;64.90
56582;BME280;42463;52.214;21.238;2024-03-08T05:55:56;101159.79;;;-1.44;64.97
56582;BME280;42463;52.214;21.238;2024-03-08T05:58:29;101157.71;;;-1.39;64.88
56582;BME280;42463;52.214;21.238;2024-03-08T06:01:05;101156.27;;;-1.34;64.88
56582;BME280;42463;52.214;21.238;2024-03-08T06:03:43;101153.58;;;-1.28;64.94
56582;BME280;42463;52.214;21.238;2024-03-08T06:06:19;101156.54;;;-1.21;64.99
56582;BME280;42463;52.214;21.238;2024-03-08T06:08:52;101158.66;;;-1.14;65.08
56582;BME280;42463;52.214;21.238;2024-03-08T06:11:30;101159.13;;;-1.07;65.15
56582;BME280;42463;52.214;21.238;2024-03-08T06:14:03;101152.33;;;-1.00;65.16
56582;BME280;42463;52.214;21.238;2024-03-08T06:16:38;101162.27;;;-0.91;65.12
56582;BME280;42463;52.214;21.238;2024-03-08T06:19:10;101162.66;;;-0.83;65.22
56582;BME280;42463;52.214;21.238;2024-03-08T06:21:45;101162.21;;;-0.77;65.29
56582;BME280;42463;52.214;21.238;2024-03-08T06:24:19;101162.30;;;-0.70;65.37
56582;BME280;42463;52.214;21.238;2024-03-08T06:26:53;101162.29;;;-0.59;65.36
56582;BME280;42463;52.214;21.238;2024-03-08T06:29:25;101162.64;;;-0.50;65.52
56582;BME280;42463;52.214;21.238;2024-03-08T06:32:01;101161.96;;;-0.39;65.46
56582;BME280;42463;52.214;21.238;2024-03-08T06:34:37;101162.13;;;-0.27;65.52
56582;BME280;42463;52.214;21.238;2024-03-08T06:37:10;101164.08;;;-0.15;65.43
56582;BME280;42463;52.214;21.238;2024-03-08T06:39:47;101165.34;;;-0.04;65.52
56582;BME280;42463;52.214;21.238;2024-03-08T06:42:24;101167.40;;;0.08;65.46
56582;BME280;42463;52.214;21.238;2024-03-08T06:44:57;101162.68;;;0.22;65.46
56582;BME280;42463;52.214;21.238;2024-03-08T06:47:36;101164.73;;;0.36;65.49
56582;BME280;42463;52.214;21.238;2024-03-08T06:50:12;101163.30;;;0.50;65.49
56582;BME280;42463;52.214;21.238;2024-03-08T06:52:47;101162.33;;;0.65;65.25
56582;BME280;42463;52.214;21.238;2024-03-08T06:55:24;101160.55;;;0.79;65.23
56582;BME280;42463;52.214;21.238;2024-03-08T06:57:58;101159.92;;;0.94;65.23
56582;BME280;42463;52.214;21.238;2024-03-08T07:00:31;101157.58;;;1.10;65.13
56582;BME280;42463;52.214;21.238;2024-03-08T07:03:06;101158.03;;;1.25;64.96
56582;BME280;42463;52.214;21.238;2024-03-08T07:05:43;101158.42;;;1.43;64.89
56582;BME280;42463;52.214;21.238;2024-03-08T07:08:22;101155.16;;;1.62;64.77
56582;BME280;42463;52.214;21.238;2024-03-08T07:10:57;101154.61;;;1.80;64.64
56582;BME280;42463;52.214;21.238;2024-03-08T07:13:31;101156.84;;;1.99;64.31
56582;BME280;42463;52.214;21.238;2024-03-08T07:16:07;101153.69;;;2.18;64.31
56582;BME280;42463;52.214;21.238;2024-03-08T07:18:41;101151.65;;;2.38;64.03
56582;BME280;42463;52.214;21.238;2024-03-08T07:21:16;101148.36;;;2.58;63.61
56582;BME280;42463;52.214;21.238;2024-03-08T07:23:51;101147.52;;;2.79;63.00
56582;BME280;42463;52.214;21.238;2024-03-08T07:26:48;101145.27;;;3.01;62.85
56582;BME280;42463;52.214;21.238;2024-03-08T07:29:27;101144.68;;;3.22;62.60
56582;BME280;42463;52.214;21.238;2024-03-08T07:32:00;101147.29;;;3.40;61.70
56582;BME280;42463;52.214;21.238;2024-03-08T07:34:45;101144.45;;;3.60;61.53
56582;BME280;42463;52.214;21.238;2024-03-08T07:37:18;101145.77;;;3.79;61.03
56582;BME280;42463;52.214;21.238;2024-03-08T07:39:53;101144.60;;;3.99;60.53
56582;BME280;42463;52.214;21.238;2024-03-08T07:42:26;101140.38;;;4.16;60.10
56582;BME280;42463;52.214;21.238;2024-03-08T07:45:01;101145.41;;;4.36;59.61
56582;BME280;42463;52.214;21.238;2024-03-08T07:47:40;101139.36;;;4.58;59.36
56582;BME280;42463;52.214;21.238;2024-03-08T07:50:15;101139.49;;;4.82;59.11
56582;BME280;42463;52.214;21.238;2024-03-08T07:52:47;101136.92;;;5.07;58.42
56582;BME280;42463;52.214;21.238;2024-03-08T07:55:21;101136.25;;;5.30;57.79
56582;BME280;42463;52.214;21.238;2024-03-08T07:57:56;101138.14;;;5.55;57.95
56582;BME280;42463;52.214;21.238;2024-03-08T08:00:29;101133.99;;;5.77;57.62
56582;BME280;42463;52.214;21.238;2024-03-08T08:03:02;101131.31;;;6.02;57.25
56582;BME280;42463;52.214;21.238;2024-03-08T08:05:37;101128.30;;;6.26;55.86
56582;BME280;42463;52.214;21.238;2024-03-08T08:08:12;101129.73;;;6.52;54.66
56582;BME280;42463;52.214;21.238;2024-03-08T08:10:45;101128.59;;;6.75;53.84
56582;BME280;42463;52.214;21.238;2024-03-08T08:13:22;101128.59;;;6.98;53.11
56582;BME280;42463;52.214;21.238;2024-03-08T08:15:57;101127.64;;;7.21;52.22
56582;BME280;42463;52.214;21.238;2024-03-08T08:18:31;101128.71;;;7.41;51.84
56582;BME280;42463;52.214;21.238;2024-03-08T08:21:06;101123.15;;;7.61;51.53
56582;BME280;42463;52.214;21.238;2024-03-08T08:23:40;101122.73;;;7.82;50.90
56582;BME280;42463;52.214;21.238;2024-03-08T08:26:13;101120.38;;;8.00;49.96
56582;BME280;42463;52.214;21.238;2024-03-08T08:28:47;101126.48;;;8.16;49.20
56582;BME280;42463;52.214;21.238;2024-03-08T08:31:19;101123.27;;;8.34;48.26
56582;BME280;42463;52.214;21.238;2024-03-08T08:33:53;101121.55;;;8.51;47.64
56582;BME280;42463;52.214;21.238;2024-03-08T08:36:30;101118.18;;;8.68;47.04
56582;BME280;42463;52.214;21.238;2024-03-08T08:39:08;101117.78;;;8.82;45.90
56582;BME280;42463;52.214;21.238;2024-03-08T08:41:47;101116.91;;;8.93;45.84
56582;BME280;42463;52.214;21.238;2024-03-08T08:44:26;101112.38;;;9.08;45.59
56582;BME280;42463;52.214;21.238;2024-03-08T08:47:07;101109.75;;;9.25;45.03
56582;BME280;42463;52.214;21.238;2024-03-08T08:49:42;101106.40;;;9.40;44.34
56582;BME280;42463;52.214;21.238;2024-03-08T08:52:18;101102.78;;;9.52;43.62
56582;BME280;42463;52.214;21.238;2024-03-08T08:54:53;101101.39;;;9.64;43.33
56582;BME280;42463;52.214;21.238;2024-03-08T08:57:26;101095.95;;;9.75;42.81
56582;BME280;42463;52.214;21.238;2024-03-08T09:00:01;101097.94;;;9.83;42.33
56582;BME280;42463;52.214;21.238;2024-03-08T09:02:34;101098.23;;;9.90;42.12
56582;BME280;42463;52.214;21.238;2024-03-08T09:05:10;101094.34;;;9.98;41.49
56582;BME280;42463;52.214;21.238;2024-03-08T09:07:44;101095.83;;;10.07;41.45
56582;BME280;42463;52.214;21.238;2024-03-08T09:10:18;101091.00;;;10.18;41.15
56582;BME280;42463;52.214;21.238;2024-03-08T09:12:52;101094.54;;;10.30;40.86
56582;BME280;42463;52.214;21.238;2024-03-08T09:15:28;101093.71;;;10.39;40.32
56582;BME280;42463;52.214;21.238;2024-03-08T09:18:06;101094.92;;;10.47;40.00
56582;BME280;42463;52.214;21.238;2024-03-08T09:20:40;101088.73;;;10.52;39.56
56582;BME280;42463;52.214;21.238;2024-03-08T09:23:14;101084.44;;;10.56;39.31
56582;BME280;42463;52.214;21.238;2024-03-08T09:25:48;101078.33;;;10.60;39.25
56582;BME280;42463;52.214;21.238;2024-03-08T09:28:22;101078.59;;;10.67;39.34
56582;BME280;42463;52.214;21.238;2024-03-08T09:30:56;101081.31;;;10.73;38.90
56582;BME280;42463;52.214;21.238;2024-03-08T09:33:29;101075.79;;;10.78;38.62
56582;BME280;42463;52.214;21.238;2024-03-08T09:36:04;101074.50;;;10.84;38.15
56582;BME280;42463;52.214;21.238;2024-03-08T09:38:39;101073.30;;;10.89;38.10
56582;BME280;42463;52.214;21.238;2024-03-08T09:41:13;101068.55;;;10.96;37.70
56582;BME280;42463;52.214;21.238;2024-03-08T09:43:48;101066.90;;;11.00;37.40
56582;BME280;42463;52.214;21.238;2024-03-08T09:46:23;101067.89;;;11.07;37.54
56582;BME280;42463;52.214;21.238;2024-03-08T09:48:58;101064.52;;;11.15;37.51
56582;BME280;42463;52.214;21.238;2024-03-08T09:51:35;101058.66;;;11.24;37.19
56582;BME280;42463;52.214;21.238;2024-03-08T09:54:09;101060.83;;;11.32;37.18
56582;BME280;42463;52.214;21.238;2024-03-08T09:56:44;101063.48;;;11.41;37.31
56582;BME280;42463;52.214;21.238;2024-03-08T09:59:19;101059.09;;;11.48;37.01
56582;BME280;42463;52.214;21.238;2024-03-08T10:02:29;101059.54;;;11.56;36.92
56582;BME280;42463;52.214;21.238;2024-03-08T10:05:02;101057.30;;;11.65;36.69
56582;BME280;42463;52.214;21.238;2024-03-08T10:07:36;101058.84;;;11.75;36.80
56582;BME280;42463;52.214;21.238;2024-03-08T10:10:11;101053.79;;;11.83;36.25
56582;BME280;42463;52.214;21.238;2024-03-08T10:12:45;101053.22;;;11.92;35.56
56582;BME280;42463;52.214;21.238;2024-03-08T10:15:19;101050.48;;;11.97;35.25
56582;BME280;42463;52.214;21.238;2024-03-08T10:17:52;101050.54;;;12.05;35.41
56582;BME280;42463;52.214;21.238;2024-03-08T10:20:26;101051.95;;;12.15;35.10
56582;BME280;42463;52.214;21.238;2024-03-08T10:23:00;101049.80;;;12.25;34.93
56582;BME280;42463;52.214;21.238;2024-03-08T10:25:37;101047.27;;;12.33;35.05
56582;BME280;42463;52.214;21.238;2024-03-08T10:28:13;101042.94;;;12.39;34.63
56582;BME280;42463;52.214;21.238;2024-03-08T10:30:52;101041.05;;;12.45;34.48
56582;BME280;42463;52.214;21.238;2024-03-08T10:33:25;101042.04;;;12.51;34.15
56582;BME280;42463;52.214;21.238;2024-03-08T10:36:00;101042.84;;;12.58;33.92
56582;BME280;42463;52.214;21.238;2024-03-08T10:38:37;101043.74;;;12.65;33.82
56582;BME280;42463;52.214;21.238;2024-03-08T10:41:12;101039.73;;;12.69;33.24
56582;BME280;42463;52.214;21.238;2024-03-08T10:44:09;101039.91;;;12.76;32.90
56582;BME280;42463;52.214;21.238;2024-03-08T10:47:00;101040.17;;;12.89;33.10
56582;BME280;42463;52.214;21.238;2024-03-08T10:49:46;101034.94;;;12.98;32.18
56582;BME280;42463;52.214;21.238;2024-03-08T10:52:24;101027.80;;;13.07;32.19
56582;BME280;42463;52.214;21.238;2024-03-08T10:54:59;101023.11;;;13.20;32.32
56582;BME280;42463;52.214;21.238;2024-03-08T10:57:34;101022.12;;;13.29;31.79
56582;BME280;42463;52.214;21.238;2024-03-08T11:00:14;101021.64;;;13.35;31.23
56582;BME280;42463;52.214;21.238;2024-03-08T11:02:49;101020.16;;;13.42;31.13
56582;BME280;42463;52.214;21.238;2024-03-08T11:05:40;101016.47;;;13.53;31.08
56582;BME280;42463;52.214;21.238;2024-03-08T11:08:22;101014.23;;;13.64;30.90
56582;BME280;42463;52.214;21.238;2024-03-08T11:10:58;101014.11;;;13.76;31.02
56582;BME280;42463;52.214;21.238;2024-03-08T11:13:38;101009.02;;;13.87;30.41
56582;BME280;42463;52.214;21.238;2024-03-08T11:16:45;101007.67;;;13.97;30.23
56582;BME280;42463;52.214;21.238;2024-03-08T11:19:44;101006.55;;;14.11;30.21
56582;BME280;42463;52.214;21.238;2024-03-08T11:22:29;101005.50;;;14.24;29.90
56582;BME280;42463;52.214;21.238;2024-03-08T11:25:15;101001.30;;;14.38;29.66
56582;BME280;42463;52.214;21.238;2024-03-08T11:28:13;100999.75;;;14.49;29.53
56582;BME280;42463;52.214;21.238;2024-03-08T11:34:16;100993.61;;;14.73;28.78
56582;BME280;42463;52.214;21.238;2024-03-08T11:36:51;100990.19;;;14.80;28.50
56582;BME280;42463;52.214;21.238;2024-03-08T11:39:28;100991.84;;;14.86;28.59
56582;BME280;42463;52.214;21.238;2024-03-08T11:42:04;100981.54;;;14.96;28.67
56582;BME280;42463;52.214;21.238;2024-03-08T11:44:40;100980.80;;;15.09;28.63
56582;BME280;42463;52.214;21.238;2024-03-08T11:47:16;100978.14;;;15.20;28.32
56582;BME280;42463;52.214;21.238;2024-03-08T11:49:49;100973.02;;;15.29;28.07
56582;BME280;42463;52.214;21.238;2024-03-08T11:52:26;100968.80;;;15.36;27.70
56582;BME280;42463;52.214;21.238;2024-03-08T11:55:00;100969.63;;;15.45;27.39
56582;BME280;42463;52.214;21.238;2024-03-08T11:57:34;100961.70;;;15.54;27.30
56582;BME280;42463;52.214;21.238;2024-03-08T12:00:18;100962.36;;;15.65;27.38
56582;BME280;42463;52.214;21.238;2024-03-08T12:03:08;100960.48;;;15.76;27.49
56582;BME280;42463;52.214;21.238;2024-03-08T12:05:43;100957.14;;;15.84;27.53
56582;BME280;42463;52.214;21.238;2024-03-08T12:08:20;100954.44;;;15.93;27.29
56582;BME280;42463;52.214;21.238;2024-03-08T12:10:53;100952.67;;;16.00;27.14
56582;BME280;42463;52.214;21.238;2024-03-08T12:13:33;100955.23;;;16.04;26.81
56582;BME280;42463;52.214;21.238;2024-03-08T12:16:08;100950.11;;;16.14;26.84
56582;BME280;42463;52.214;21.238;2024-03-08T12:18:42;100945.39;;;16.20;26.32
56582;BME280;42463;52.214;21.238;2024-03-08T12:21:17;100941.27;;;16.25;26.32
56582;BME280;42463;52.214;21.238;2024-03-08T12:24:05;100938.70;;;16.35;26.26
56582;BME280;42463;52.214;21.238;2024-03-08T12:26:41;100935.01;;;16.43;26.23
56582;BME280;42463;52.214;21.238;2024-03-08T12:29:21;100935.83;;;16.43;26.23
56582;BME280;42463;52.214;21.238;2024-03-08T12:31:57;100936.01;;;16.40;26.02
56582;BME280;42463;52.214;21.238;2024-03-08T12:34:33;100930.71;;;16.37;26.12
56582;BME280;42463;52.214;21.238;2024-03-08T12:37:05;100928.47;;;16.35;26.28
56582;BME280;42463;52.214;21.238;2024-03-08T12:39:42;100922.27;;;16.36;26.23
56582;BME280;42463;52.214;21.238;2024-03-08T12:42:18;100921.65;;;16.40;26.02
56582;BME280;42463;52.214;21.238;2024-03-08T12:44:53;100917.48;;;16.41;25.71
56582;BME280;42463;52.214;21.238;2024-03-08T12:47:27;100913.54;;;16.43;25.36
56582;BME280;42463;52.214;21.238;2024-03-08T12:50:01;100915.63;;;16.42;25.25
56582;BME280;42463;52.214;21.238;2024-03-08T12:52:36;100913.52;;;16.46;25.75
56582;BME280;42463;52.214;21.238;2024-03-08T12:55:10;100908.08;;;16.49;25.47
56582;BME280;42463;52.214;21.238;2024-03-08T12:57:44;100905.59;;;16.54;25.45
56582;BME280;42463;52.214;21.238;2024-03-08T13:00:22;100898.84;;;16.59;25.44
56582;BME280;42463;52.214;21.238;2024-03-08T13:02:56;100897.83;;;16.61;25.20
56582;BME280;42463;52.214;21.238;2024-03-08T13:05:31;100894.89;;;16.66;24.91
56582;BME280;42463;52.214;21.238;2024-03-08T13:08:04;100891.48;;;16.70;25.04
56582;BME280;42463;52.214;21.238;2024-03-08T13:10:44;100890.90;;;16.77;25.08
56582;BME280;42463;52.214;21.238;2024-03-08T13:13:18;100886.81;;;16.81;24.91
56582;BME280;42463;52.214;21.238;2024-03-08T13:15:51;100887.01;;;16.84;25.15
56582;BME280;42463;52.214;21.238;2024-03-08T13:18:33;100881.08;;;16.85;24.88
56582;BME280;42463;52.214;21.238;2024-03-08T13:21:08;100876.63;;;16.86;25.23
56582;BME280;42463;52.214;21.238;2024-03-08T13:23:43;100877.99;;;16.88;25.22
56582;BME280;42463;52.214;21.238;2024-03-08T13:26:18;100870.98;;;16.87;25.26
56582;BME280;42463;52.214;21.238;2024-03-08T13:28:51;100867.45;;;16.83;25.07